Time;durP1;ratioP1;P1;durP2;ratioP2;P2;SDS_P1;SDS_P2;PMS_P1;PMS_P2;Temp;Humidity;BMP_temperature;BMP_pressure;BME280_temperature;BME280_humidity;BME280_pressure;Samples;Min_cycle;Max_cycle;Signal;HPM_P1;HPM_P2
2021/04/05 00:01:37;;;;;;;1.63;1.52;;;;;;;;;;5089783;28;20028;-79
2021/04/05 00:04:04;;;;;;;1.83;1.48;;;;;;;;;;5089485;28;20040;-77
2021/04/05 00:06:30;;;;;;;1.30;1.20;;;;;;;;;;5090392;28;20012;-78
2021/04/05 00:08:56;;;;;;;1.48;1.38;;;;;;;;;;5089123;28;20028;-78
2021/04/05 00:11:22;;;;;;;1.55;1.45;;;;;;;;;;5089110;28;20475;-78
2021/04/05 00:13:48;;;;;;;1.92;1.73;;;;;;;;;;5089488;28;20433;-79
2021/04/05 00:16:16;;;;;;;2.72;2.08;;;;;;;;;;5089232;28;20024;-79
2021/04/05 00:18:42;;;;;;;1.50;1.40;;;;;;;;;;5089918;28;20027;-79
2021/04/05 00:21:11;;;;;;;1.85;1.60;;;;;;;;;;5088541;28;20486;-78
2021/04/05 00:23:37;;;;;;;1.60;1.50;;;;;;;;;;5089055;28;20383;-79
2021/04/05 00:26:04;;;;;;;1.55;1.45;;;;;;;;;;5089603;28;20028;-78
2021/04/05 00:28:30;;;;;;;3.83;2.10;;;;;;;;;;5089921;28;20095;-79
2021/04/05 00:30:56;;;;;;;2.25;1.40;;;;;;;;;;5089247;28;20081;-77
2021/04/05 00:33:22;;;;;;;1.58;1.48;;;;;;;;;;5088908;28;20479;-79
2021/04/05 00:35:49;;;;;;;1.80;1.70;;;;;;;;;;5089623;28;20020;-78
2021/04/05 00:38:15;;;;;;;1.35;1.25;;;;;;;;;;5087685;28;20048;-79
2021/04/05 00:40:44;;;;;;;1.88;1.77;;;;;;;;;;5088491;28;20028;-78
2021/04/05 00:43:11;;;;;;;2.63;2.42;;;;;;;;;;5087934;28;20047;-78
2021/04/05 00:45:37;;;;;;;2.67;1.60;;;;;;;;;;5089771;28;20028;-78
2021/04/05 00:48:04;;;;;;;1.85;1.75;;;;;;;;;;5088477;28;20020;-78
2021/04/05 00:50:33;;;;;;;1.58;1.38;;;;;;;;;;5089064;28;20028;-79
2021/04/05 00:53:00;;;;;;;2.10;1.55;;;;;;;;;;5088230;28;20440;-77
2021/04/05 00:55:26;;;;;;;2.35;2.15;;;;;;;;;;5090021;28;20496;-78
2021/04/05 00:57:53;;;;;;;2.95;1.58;;;;;;;;;;5089057;28;20039;-79
2021/04/05 01:00:29;;;;;;;1.95;1.77;;;;;;;;;;5087981;28;20028;-79
2021/04/05 01:02:55;;;;;;;1.33;1.23;;;;;;;;;;5088824;28;20028;-78
2021/04/05 01:05:21;;;;;;;1.33;1.10;;;;;;;;;;5088567;28;20068;-78
2021/04/05 01:07:47;;;;;;;1.70;1.60;;;;;;;;;;5088063;28;20060;-78
2021/04/05 01:10:14;;;;;;;1.65;1.30;;;;;;;;;;5088121;28;20051;-78
2021/04/05 01:12:40;;;;;;;1.85;1.48;;;;;;;;;;5087828;28;20030;-78
2021/04/05 01:15:07;;;;;;;2.05;1.35;;;;;;;;;;5088849;28;20021;-78
2021/04/05 01:17:33;;;;;;;1.15;1.05;;;;;;;;;;5088781;28;20067;-78
2021/04/05 01:20:00;;;;;;;1.85;1.67;;;;;;;;;;5087383;28;20449;-77
2021/04/05 01:22:26;;;;;;;1.70;1.60;;;;;;;;;;5088072;28;20050;-78
2021/04/05 01:24:53;;;;;;;1.65;1.50;;;;;;;;;;5088656;28;20459;-78
2021/04/05 01:27:19;;;;;;;1.98;1.55;;;;;;;;;;5087953;28;20033;-78
2021/04/05 01:29:45;;;;;;;1.27;0.98;;;;;;;;;;5088260;28;20032;-78
2021/04/05 01:32:11;;;;;;;2.10;1.60;;;;;;;;;;5087566;28;20031;-77
2021/04/05 01:34:38;;;;;;;2.17;1.33;;;;;;;;;;5088377;28;20012;-78
2021/04/05 01:37:05;;;;;;;2.65;2.45;;;;;;;;;;5086070;28;20024;-77
2021/04/05 01:39:33;;;;;;;1.90;1.77;;;;;;;;;;5088307;28;20479;-78
2021/04/05 01:41:59;;;;;;;2.50;2.30;;;;;;;;;;5087232;28;20455;-78
2021/04/05 01:44:26;;;;;;;2.15;1.65;;;;;;;;;;5088427;28;20020;-78
2021/04/05 01:46:52;;;;;;;1.75;1.65;;;;;;;;;;5088847;28;20016;-78
2021/04/05 01:49:18;;;;;;;1.88;1.77;;;;;;;;;;5087608;28;20024;-78
2021/04/05 01:51:44;;;;;;;1.63;1.52;;;;;;;;;;5087615;28;20429;-78
2021/04/05 01:54:10;;;;;;;2.13;1.85;;;;;;;;;;5087415;28;20625;-78
2021/04/05 01:56:36;;;;;;;1.88;1.77;;;;;;;;;;5087772;28;20039;-78
2021/04/05 01:59:02;;;;;;;1.65;1.55;;;;;;;;;;5087284;28;20054;-77
2021/04/05 02:01:29;;;;;;;2.20;1.70;;;;;;;;;;5087839;28;20445;-78
2021/04/05 02:03:56;;;;;;;1.83;1.33;;;;;;;;;;5087350;28;20028;-77
2021/04/05 02:06:25;;;;;;;1.85;1.48;;;;;;;;;;5087825;28;20342;-78
2021/04/05 02:08:52;;;;;;;2.35;2.15;;;;;;;;;;5087185;28;20028;-78
2021/04/05 02:11:23;;;;;;;1.90;1.75;;;;;;;;;;5086520;28;20085;-78
2021/04/05 02:13:50;;;;;;;1.80;1.65;;;;;;;;;;5087598;28;20397;-78
2021/04/05 02:16:20;;;;;;;1.60;1.50;;;;;;;;;;5087530;28;20155;-78
2021/04/05 02:18:50;;;;;;;2.47;2.28;;;;;;;;;;5087950;28;20032;-78
2021/04/05 02:21:18;;;;;;;1.52;1.42;;;;;;;;;;5086295;28;20040;-78
2021/04/05 02:23:45;;;;;;;2.05;1.95;;;;;;;;;;5087039;28;20126;-78
2021/04/05 02:26:12;;;;;;;1.63;1.45;;;;;;;;;;5087728;28;20031;-77
2021/04/05 02:28:41;;;;;;;2.58;1.63;;;;;;;;;;5087869;28;20054;-77
2021/04/05 02:31:11;;;;;;;1.50;1.40;;;;;;;;;;5086660;28;20050;-77
2021/04/05 02:33:41;;;;;;;1.52;1.35;;;;;;;;;;5087045;28;20031;-78
2021/04/05 02:36:08;;;;;;;1.55;1.45;;;;;;;;;;5087078;28;20474;-77
2021/04/05 02:38:36;;;;;;;2.00;1.90;;;;;;;;;;5086499;28;20044;-78
2021/04/05 02:41:02;;;;;;;1.63;1.35;;;;;;;;;;5085854;28;20077;-77
2021/04/05 02:43:28;;;;;;;1.38;1.27;;;;;;;;;;5087577;28;20108;-77
2021/04/05 02:45:55;;;;;;;2.28;2.08;;;;;;;;;;5087565;28;20020;-77
2021/04/05 02:48:22;;;;;;;3.08;1.98;;;;;;;;;;5087206;28;20548;-77
2021/04/05 02:50:49;;;;;;;1.52;1.25;;;;;;;;;;5087147;28;20525;-78
2021/04/05 02:53:15;;;;;;;2.08;1.92;;;;;;;;;;5086517;28;20955;-78
2021/04/05 02:55:41;;;;;;;1.38;1.27;;;;;;;;;;5088146;28;20479;-78
2021/04/05 02:58:07;;;;;;;1.70;1.60;;;;;;;;;;5086739;28;20031;-77
2021/04/05 03:00:35;;;;;;;1.58;1.48;;;;;;;;;;5085470;28;20029;-78
2021/04/05 03:03:02;;;;;;;3.92;1.52;;;;;;;;;;5086036;28;20086;-77
2021/04/05 03:05:28;;;;;;;3.67;1.33;;;;;;;;;;5086843;28;20028;-78
2021/04/05 03:07:55;;;;;;;1.60;1.50;;;;;;;;;;5089845;28;20044;-77
2021/04/05 03:10:25;;;;;;;2.13;1.48;;;;;;;;;;5090443;28;20081;-77
2021/04/05 03:12:54;;;;;;;1.13;1.13;;;;;;;;;;5090515;28;20020;-77
2021/04/05 03:15:20;;;;;;;2.15;1.40;;;;;;;;;;5091200;28;20028;-77
2021/04/05 03:17:47;;;;;;;1.58;1.48;;;;;;;;;;5091452;28;20020;-78
2021/04/05 03:20:20;;;;;;;2.13;1.80;;;;;;;;;;5090369;28;20111;-78
2021/04/05 03:22:46;;;;;;;1.70;1.60;;;;;;;;;;5090084;28;20040;-78
2021/04/05 03:25:20;;;;;;;1.63;1.52;;;;;;;;;;5090749;28;20115;-78
2021/04/05 03:27:47;;;;;;;2.42;2.20;;;;;;;;;;5091030;28;20050;-78
2021/04/05 03:30:16;;;;;;;2.33;1.95;;;;;;;;;;5089714;28;20309;-78
2021/04/05 03:32:42;;;;;;;2.53;1.60;;;;;;;;;;5090115;28;20437;-78
2021/04/05 03:35:11;;;;;;;2.63;1.42;;;;;;;;;;5090204;28;20217;-77
2021/04/05 03:37:38;;;;;;;2.03;1.45;;;;;;;;;;5089172;28;20051;-78
2021/04/05 03:40:06;;;;;;;1.52;1.42;;;;;;;;;;5089377;28;20077;-77
2021/04/05 03:42:43;;;;;;;1.45;1.35;;;;;;;;;;5089663;28;20114;-78
2021/04/05 03:45:26;;;;;;;2.15;1.65;;;;;;;;;;5089999;28;20483;-77
2021/04/05 03:48:11;;;;;;;4.07;2.88;;;;;;;;;;5090478;28;20036;-77
2021/04/05 03:50:41;;;;;;;1.45;1.25;;;;;;;;;;5090336;28;20487;-77
2021/04/05 03:53:25;;;;;;;1.40;1.25;;;;;;;;;;5089557;28;20043;-77
2021/04/05 03:55:56;;;;;;;1.83;1.73;;;;;;;;;;5091140;28;20024;-78
2021/04/05 03:58:22;;;;;;;1.80;1.70;;;;;;;;;;5090097;28;20479;-77
2021/04/05 04:00:49;;;;;;;1.55;1.45;;;;;;;;;;5089304;28;20028;-77
2021/04/05 04:03:19;;;;;;;2.15;1.95;;;;;;;;;;5089088;28;20078;-77
2021/04/05 04:05:57;;;;;;;2.75;1.30;;;;;;;;;;5089916;28;20020;-77
2021/04/05 04:08:29;;;;;;;2.00;1.77;;;;;;;;;;5089153;28;20407;-77
2021/04/05 04:10:58;;;;;;;1.92;1.70;;;;;;;;;;5089666;28;20048;-77
2021/04/05 04:13:25;;;;;;;1.52;1.40;;;;;;;;;;5089796;28;20032;-77
2021/04/05 04:15:52;;;;;;;1.90;1.80;;;;;;;;;;5090115;28;20039;-77
2021/04/05 04:18:19;;;;;;;2.35;1.70;;;;;;;;;;5088123;28;20298;-78
2021/04/05 04:20:46;;;;;;;1.52;1.42;;;;;;;;;;5089098;28;20498;-78
2021/04/05 04:23:13;;;;;;;1.63;1.38;;;;;;;;;;5088756;28;20042;-78
2021/04/05 04:25:40;;;;;;;2.03;1.90;;;;;;;;;;5089612;28;20028;-77
2021/04/05 04:28:06;;;;;;;3.25;1.92;;;;;;;;;;5088962;28;20475;-77
2021/04/05 04:30:32;;;;;;;2.03;1.80;;;;;;;;;;5088906;28;20499;-77
2021/04/05 04:33:03;;;;;;;1.77;1.67;;;;;;;;;;5088804;28;20022;-76
2021/04/05 04:35:29;;;;;;;3.40;2.22;;;;;;;;;;5089618;28;20024;-77
2021/04/05 04:37:55;;;;;;;2.08;1.88;;;;;;;;;;5088337;28;20052;-77
2021/04/05 04:40:22;;;;;;;1.30;1.20;;;;;;;;;;5088216;28;20095;-78
2021/04/05 04:42:49;;;;;;;3.20;1.63;;;;;;;;;;5088608;28;20178;-77
2021/04/05 04:45:15;;;;;;;1.45;1.35;;;;;;;;;;5088867;28;20032;-77
2021/04/05 04:47:42;;;;;;;1.70;1.60;;;;;;;;;;5089306;28;20046;-77
2021/04/05 04:50:08;;;;;;;2.08;1.60;;;;;;;;;;5088409;28;20479;-78
2021/04/05 04:52:34;;;;;;;3.75;2.03;;;;;;;;;;5088888;28;20448;-77
2021/04/05 04:55:00;;;;;;;1.55;1.42;;;;;;;;;;5089168;28;20028;-77
2021/04/05 04:57:26;;;;;;;1.50;1.40;;;;;;;;;;5088587;28;20506;-78
2021/04/05 04:59:54;;;;;;;1.73;1.63;;;;;;;;;;5088724;28;20032;-77
2021/04/05 05:02:20;;;;;;;1.40;1.30;;;;;;;;;;5087644;28;20166;-77
2021/04/05 05:04:48;;;;;;;2.05;1.30;;;;;;;;;;5089053;28;20297;-77
2021/04/05 05:07:15;;;;;;;1.52;1.40;;;;;;;;;;5086790;28;20521;-77
2021/04/05 05:09:41;;;;;;;1.98;1.80;;;;;;;;;;5088765;28;20028;-77
2021/04/05 05:12:08;;;;;;;2.25;1.83;;;;;;;;;;5087560;28;20024;-77
2021/04/05 05:14:35;;;;;;;2.00;1.80;;;;;;;;;;5088930;28;20031;-77
2021/04/05 05:17:01;;;;;;;1.48;1.38;;;;;;;;;;5088341;28;20081;-77
2021/04/05 05:19:27;;;;;;;2.30;2.00;;;;;;;;;;5088309;28;20024;-77
2021/04/05 05:21:54;;;;;;;1.90;1.50;;;;;;;;;;5088362;28;20089;-77
2021/04/05 05:24:25;;;;;;;2.75;1.83;;;;;;;;;;5088255;28;20032;-77
2021/04/05 05:26:52;;;;;;;2.28;1.73;;;;;;;;;;5088416;28;20034;-78
2021/04/05 05:29:21;;;;;;;2.03;1.63;;;;;;;;;;5087217;28;20020;-77
2021/04/05 05:31:47;;;;;;;2.80;1.50;;;;;;;;;;5087879;28;20028;-78
2021/04/05 05:34:14;;;;;;;1.52;1.42;;;;;;;;;;5087870;28;20032;-78
2021/04/05 05:36:42;;;;;;;2.00;1.52;;;;;;;;;;5087791;28;20035;-78
2021/04/05 05:39:08;;;;;;;1.40;1.30;;;;;;;;;;5086436;28;20052;-77
2021/04/05 05:41:49;;;;;;;1.98;1.73;;;;;;;;;;5087500;28;20078;-78
2021/04/05 05:44:19;;;;;;;2.22;1.25;;;;;;;;;;5087688;28;20035;-77
2021/04/05 05:47:03;;;;;;;2.28;1.70;;;;;;;;;;5087396;28;20035;-78
2021/04/05 05:49:33;;;;;;;1.42;1.25;;;;;;;;;;5067806;28;20035;-77
2021/04/05 05:52:02;;;;;;;1.75;1.65;;;;;;;;;;5067201;28;20083;-77
2021/04/05 05:54:47;;;;;;;1.98;1.70;;;;;;;;;;5067720;28;20028;-77
2021/04/05 05:57:16;;;;;;;1.63;1.52;;;;;;;;;;5067165;28;20028;-77
2021/04/05 05:59:55;;;;;;;1.80;1.50;;;;;;;;;;5067145;28;20029;-77
2021/04/05 06:02:23;;;;;;;1.40;1.30;;;;;;;;;;5066631;28;20048;-78
2021/04/05 06:05:08;;;;;;;1.75;1.58;;;;;;;;;;5067998;28;20052;-78
2021/04/05 06:07:50;;;;;;;1.30;1.20;;;;;;;;;;5066341;28;20028;-78
2021/04/05 06:10:35;;;;;;;1.45;1.35;;;;;;;;;;5066716;28;20029;-77
2021/04/05 06:13:09;;;;;;;1.75;1.58;;;;;;;;;;5066426;28;20028;-77
2021/04/05 06:15:40;;;;;;;1.77;1.67;;;;;;;;;;5068022;28;20025;-77
2021/04/05 06:18:12;;;;;;;2.25;1.23;;;;;;;;;;5067311;28;20543;-77
2021/04/05 06:21:03;;;;;;;1.30;1.20;;;;;;;;;;5066907;28;20164;-77
2021/04/05 06:23:38;;;;;;;2.65;2.45;;;;;;;;;;5067230;28;20085;-77
2021/04/05 06:26:12;;;;;;;1.50;1.40;;;;;;;;;;5067111;28;20028;-77
2021/04/05 06:28:50;;;;;;;1.50;1.40;;;;;;;;;;5067185;28;20468;-77
2021/04/05 06:31:16;;;;;;;1.48;1.35;;;;;;;;;;5066482;28;20485;-77
2021/04/05 06:33:46;;;;;;;1.45;1.35;;;;;;;;;;5067274;28;20032;-77
2021/04/05 06:36:12;;;;;;;1.52;1.42;;;;;;;;;;5067043;28;20113;-77
2021/04/05 06:38:42;;;;;;;1.42;1.30;;;;;;;;;;5080313;28;20047;-77
2021/04/05 06:41:27;;;;;;;1.65;1.55;;;;;;;;;;5086408;28;20088;-77
2021/04/05 06:43:53;;;;;;;1.45;1.20;;;;;;;;;;5091049;28;20016;-77
2021/04/05 06:46:28;;;;;;;1.70;1.48;;;;;;;;;;5091396;28;20133;-78
2021/04/05 06:49:13;;;;;;;3.25;1.42;;;;;;;;;;5091676;28;20024;-77
2021/04/05 06:51:42;;;;;;;1.52;1.42;;;;;;;;;;5091594;28;20024;-77
2021/04/05 06:54:08;;;;;;;1.60;1.17;;;;;;;;;;5090520;28;20506;-77
2021/04/05 06:56:53;;;;;;;2.10;1.90;;;;;;;;;;5091706;28;20028;-77
2021/04/05 06:59:25;;;;;;;1.40;1.30;;;;;;;;;;5090097;28;20032;-77
2021/04/05 07:01:57;;;;;;;1.70;1.60;;;;;;;;;;5090326;28;20032;-77
2021/04/05 07:04:35;;;;;;;1.13;1.05;;;;;;;;;;5090733;28;20107;-77
2021/04/05 07:07:08;;;;;;;2.10;1.92;;;;;;;;;;5089104;28;20111;-76
2021/04/05 07:09:52;;;;;;;1.95;1.85;;;;;;;;;;5090351;28;20020;-77
2021/04/05 07:12:42;;;;;;;2.45;1.58;;;;;;;;;;5089563;28;20028;-77
2021/04/05 07:15:22;;;;;;;1.98;1.58;;;;;;;;;;5090516;28;20440;-77
2021/04/05 07:17:50;;;;;;;1.75;1.65;;;;;;;;;;5090826;28;20032;-77
2021/04/05 07:20:34;;;;;;;1.48;1.33;;;;;;;;;;5089923;28;20028;-77
2021/04/05 07:23:00;;;;;;;;;;;;;;;;;;5090202;28;20410;-77
2021/04/05 07:25:35;;;;;;;1.38;1.02;;;;;;;;;;5090897;28;19936;-77
2021/04/05 07:28:13;;;;;;;2.38;1.77;;;;;;;;;;5089764;28;20024;-77
2021/04/05 07:30:47;;;;;;;1.25;1.15;;;;;;;;;;5089921;28;20063;-77
2021/04/05 07:33:20;;;;;;;2.10;2.00;;;;;;;;;;5089037;28;20074;-77
2021/04/05 07:36:04;;;;;;;2.38;1.70;;;;;;;;;;5090076;28;20028;-77
2021/04/05 07:38:30;;;;;;;1.40;1.30;;;;;;;;;;5088999;28;20055;-77
2021/04/05 07:41:15;;;;;;;1.98;1.58;;;;;;;;;;5089093;28;20016;-77
2021/04/05 07:44:00;;;;;;;1.80;1.52;;;;;;;;;;5089316;28;20024;-77
2021/04/05 07:46:42;;;;;;;1.55;1.45;;;;;;;;;;5090141;28;20074;-77
2021/04/05 07:49:14;;;;;;;1.58;1.48;;;;;;;;;;5069447;28;20033;-77
2021/04/05 07:52:07;;;;;;;1.58;1.48;;;;;;;;;;5069596;28;20029;-77
2021/04/05 07:54:34;;;;;;;2.00;1.83;;;;;;;;;;5037828;28;20050;-77
2021/04/05 07:57:08;;;;;;;2.95;1.70;;;;;;;;;;5069216;28;20028;-76
2021/04/05 07:59:38;;;;;;;1.60;1.33;;;;;;;;;;5069040;28;20032;-77
2021/04/05 08:02:04;;;;;;;1.48;1.38;;;;;;;;;;5065914;28;20098;-76
2021/04/05 08:04:48;;;;;;;2.45;2.25;;;;;;;;;;5068760;28;20020;-77
2021/04/05 08:07:26;;;;;;;2.53;1.50;;;;;;;;;;5066949;28;20123;-77
2021/04/05 08:10:02;;;;;;;1.60;1.50;;;;;;;;;;5068243;28;20030;-77
2021/04/05 08:12:51;;;;;;;1.58;1.48;;;;;;;;;;5068106;28;20096;-77
2021/04/05 08:15:29;;;;;;;1.55;1.45;;;;;;;;;;5067937;28;20028;-77
2021/04/05 08:17:59;;;;;;;1.77;1.67;;;;;;;;;;5068755;28;20497;-76
2021/04/05 08:20:25;;;;;;;2.10;2.00;;;;;;;;;;5067863;28;20077;-77
2021/04/05 08:22:58;;;;;;;2.28;2.08;;;;;;;;;;5067249;28;20033;-77
2021/04/05 08:25:31;;;;;;;;;;;;;;;;;;5069111;28;20039;-77
2021/04/05 08:28:06;;;;;;;1.40;1.30;;;;;;;;;;5067497;28;19909;-76
2021/04/05 08:30:41;;;;;;;2.10;1.92;;;;;;;;;;5067948;28;20052;-77
2021/04/05 08:33:14;;;;;;;2.38;1.83;;;;;;;;;;5066744;28;20028;-76
2021/04/05 08:35:43;;;;;;;1.70;1.60;;;;;;;;;;5067824;28;20142;-77
2021/04/05 08:38:26;;;;;;;2.20;2.00;;;;;;;;;;5075559;28;20599;-76
2021/04/05 08:40:54;;;;;;;3.10;2.87;;;;;;;;;;5087103;28;20359;-77
2021/04/05 08:43:30;;;;;;;2.17;2.00;;;;;;;;;;5087353;28;20563;-77
2021/04/05 08:46:02;;;;;;;1.80;1.70;;;;;;;;;;5088705;28;20059;-76
2021/04/05 08:48:30;;;;;;;2.10;1.90;;;;;;;;;;5088208;28;20047;-76
2021/04/05 08:51:01;;;;;;;1.50;1.23;;;;;;;;;;5087893;28;20040;-76
2021/04/05 08:53:29;;;;;;;1.83;1.38;;;;;;;;;;5088304;28;20103;-77
2021/04/05 08:55:57;;;;;;;1.65;1.55;;;;;;;;;;5088479;28;20085;-76
2021/04/05 08:58:27;;;;;;;2.10;2.00;;;;;;;;;;5088090;28;20240;-77
2021/04/05 09:00:56;;;;;;;2.63;2.42;;;;;;;;;;5088270;28;20107;-77
2021/04/05 09:03:24;;;;;;;2.53;2.25;;;;;;;;;;5087590;28;20028;-76
2021/04/05 09:05:51;;;;;;;2.35;1.40;;;;;;;;;;5087957;28;20017;-76
2021/04/05 09:08:20;;;;;;;2.45;2.03;;;;;;;;;;5086844;28;20683;-77
2021/04/05 09:10:48;;;;;;;2.38;2.17;;;;;;;;;;5087602;28;20093;-76
2021/04/05 09:13:35;;;;;;;4.22;2.50;;;;;;;;;;5087244;28;20971;-76
2021/04/05 09:16:10;;;;;;;2.00;1.80;;;;;;;;;;5087270;28;20472;-76
2021/04/05 09:18:45;;;;;;;2.92;2.15;;;;;;;;;;5088134;28;20569;-77
2021/04/05 09:21:30;;;;;;;1.80;1.70;;;;;;;;;;5086384;28;20128;-76
2021/04/05 09:23:56;;;;;;;2.00;1.90;;;;;;;;;;5087107;28;20024;-76
2021/04/05 09:26:22;;;;;;;2.80;2.35;;;;;;;;;;5087895;28;20028;-77
2021/04/05 09:29:00;;;;;;;2.45;2.22;;;;;;;;;;5087973;28;20081;-77
2021/04/05 09:31:45;;;;;;;2.25;1.95;;;;;;;;;;5087290;28;20024;-77
2021/04/05 09:34:29;;;;;;;2.50;2.10;;;;;;;;;;5086656;28;20095;-77
2021/04/05 09:37:04;;;;;;;2.63;1.58;;;;;;;;;;5086813;28;20027;-76
2021/04/05 09:39:36;;;;;;;2.60;2.40;;;;;;;;;;5086972;28;20101;-77
2021/04/05 09:42:13;;;;;;;3.15;1.85;;;;;;;;;;5086512;28;20043;-76
2021/04/05 09:44:55;;;;;;;2.25;2.13;;;;;;;;;;5087241;28;20403;-77
2021/04/05 09:47:41;;;;;;;2.15;1.73;;;;;;;;;;5086052;28;20114;-77
2021/04/05 09:50:16;;;;;;;2.40;2.17;;;;;;;;;;5086251;28;20024;-76
2021/04/05 09:52:53;;;;;;;2.17;1.98;;;;;;;;;;5086866;28;20032;-77
2021/04/05 09:55:32;;;;;;;1.58;1.48;;;;;;;;;;5086840;28;20032;-77
2021/04/05 09:58:06;;;;;;;3.50;1.92;;;;;;;;;;5068726;28;20024;-76
2021/04/05 10:00:32;;;;;;;2.55;2.13;;;;;;;;;;5086380;28;20030;-77
2021/04/05 10:03:05;;;;;;;2.55;2.35;;;;;;;;;;5086669;28;20449;-76
2021/04/05 10:05:33;;;;;;;2.20;2.08;;;;;;;;;;5087029;28;20024;-76
2021/04/05 10:08:01;;;;;;;2.28;2.08;;;;;;;;;;5085774;28;20028;-76
2021/04/05 10:10:28;;;;;;;2.00;1.80;;;;;;;;;;5086879;28;20092;-77
2021/04/05 10:12:56;;;;;;;2.85;1.85;;;;;;;;;;5086717;28;20024;-77
2021/04/05 10:15:24;;;;;;;2.42;1.50;;;;;;;;;;5086761;28;20486;-77
2021/04/05 10:18:00;;;;;;;1.65;1.50;;;;;;;;;;5087004;28;20035;-77
2021/04/05 10:20:28;;;;;;;1.48;1.38;;;;;;;;;;5087201;28;20023;-77
2021/04/05 10:22:54;;;;;;;2.92;2.28;;;;;;;;;;5086813;28;20062;-77
2021/04/05 10:25:21;;;;;;;2.55;2.35;;;;;;;;;;5087085;28;20024;-77
2021/04/05 10:27:49;;;;;;;3.20;2.78;;;;;;;;;;5087334;28;20060;-77
2021/04/05 10:30:16;;;;;;;1.70;1.60;;;;;;;;;;5086425;28;20032;-77
2021/04/05 10:32:43;;;;;;;2.50;1.98;;;;;;;;;;5086575;28;20439;-77
2021/04/05 10:35:14;;;;;;;1.85;1.52;;;;;;;;;;5086421;28;20073;-76
2021/04/05 10:37:43;;;;;;;2.38;1.92;;;;;;;;;;5085807;28;20044;-77
2021/04/05 10:40:13;;;;;;;1.58;1.33;;;;;;;;;;5085860;28;20031;-76
2021/04/05 10:43:06;;;;;;;2.67;2.33;;;;;;;;;;5086200;28;20221;-77
2021/04/05 10:45:35;;;;;;;2.15;1.95;;;;;;;;;;5056107;28;20126;-77
2021/04/05 10:48:04;;;;;;;2.63;2.00;;;;;;;;;;5086289;28;20024;-76
2021/04/05 10:50:32;;;;;;;1.50;1.40;;;;;;;;;;5086294;28;20252;-77
2021/04/05 10:53:12;;;;;;;1.40;1.30;;;;;;;;;;5086483;28;20031;-77
2021/04/05 10:55:41;;;;;;;2.10;1.60;;;;;;;;;;5087011;28;20067;-77
2021/04/05 10:58:10;;;;;;;1.65;1.55;;;;;;;;;;5085958;28;20028;-77
2021/04/05 11:00:37;;;;;;;1.77;1.65;;;;;;;;;;5086013;28;20032;-77
2021/04/05 11:03:09;;;;;;;2.45;1.40;;;;;;;;;;5085984;28;20498;-76
2021/04/05 11:05:36;;;;;;;1.42;1.30;;;;;;;;;;5087001;28;20024;-77
2021/04/05 11:08:04;;;;;;;2.03;1.85;;;;;;;;;;5085601;28;20024;-76
2021/04/05 11:10:32;;;;;;;1.30;1.20;;;;;;;;;;5086634;28;20028;-77
2021/04/05 11:13:06;;;;;;;2.40;1.55;;;;;;;;;;5085776;28;20417;-76
2021/04/05 11:15:32;;;;;;;2.08;1.35;;;;;;;;;;5086955;28;20016;-77
2021/04/05 11:18:02;;;;;;;1.63;1.48;;;;;;;;;;5086886;28;20020;-77
2021/04/05 11:20:33;;;;;;;1.42;1.23;;;;;;;;;;5086169;28;20060;-77
2021/04/05 11:23:04;;;;;;;1.85;1.38;;;;;;;;;;5085939;28;20036;-77
2021/04/05 11:25:32;;;;;;;1.20;1.10;;;;;;;;;;5087368;28;20061;-77
2021/04/05 11:28:07;;;;;;;2.08;1.83;;;;;;;;;;5087516;28;20051;-77
2021/04/05 11:30:33;;;;;;;1.30;1.20;;;;;;;;;;5090506;28;20032;-77
2021/04/05 11:33:00;;;;;;;1.75;1.60;;;;;;;;;;5089590;28;20134;-77
2021/04/05 11:35:33;;;;;;;2.47;1.50;;;;;;;;;;5089963;28;20038;-77
2021/04/05 11:38:04;;;;;;;1.60;1.50;;;;;;;;;;5088771;28;20415;-77
2021/04/05 11:40:30;;;;;;;1.23;1.13;;;;;;;;;;5089476;28;20040;-77
2021/04/05 11:42:58;;;;;;;1.40;1.30;;;;;;;;;;5089498;28;20036;-77
2021/04/05 11:45:32;;;;;;;1.80;1.70;;;;;;;;;;5089820;28;20035;-77
2021/04/05 11:48:00;;;;;;;1.52;1.42;;;;;;;;;;5089424;28;20043;-77
2021/04/05 11:50:27;;;;;;;2.35;1.23;;;;;;;;;;5089087;28;20024;-77
2021/04/05 11:53:09;;;;;;;1.75;1.40;;;;;;;;;;5089475;28;20475;-77
2021/04/05 11:55:38;;;;;;;1.77;1.52;;;;;;;;;;5090141;28;20024;-77
2021/04/05 11:58:08;;;;;;;1.38;0.82;;;;;;;;;;5089238;28;20489;-77
2021/04/05 12:00:39;;;;;;;1.33;1.23;;;;;;;;;;5089475;28;20081;-77
2021/04/05 12:03:10;;;;;;;1.88;1.30;;;;;;;;;;5089021;28;20126;-77
2021/04/05 12:05:40;;;;;;;2.58;1.40;;;;;;;;;;5090075;28;20453;-78
2021/04/05 12:08:09;;;;;;;1.83;1.42;;;;;;;;;;5088033;28;20016;-77
2021/04/05 12:10:36;;;;;;;1.52;1.42;;;;;;;;;;5089099;28;20028;-78
2021/04/05 12:13:08;;;;;;;1.83;1.33;;;;;;;;;;5088639;28;20027;-78
2021/04/05 12:15:35;;;;;;;1.35;1.25;;;;;;;;;;5089293;28;20073;-78
2021/04/05 12:18:02;;;;;;;2.28;0.85;;;;;;;;;;5089262;28;20364;-77
2021/04/05 12:20:29;;;;;;;1.92;1.73;;;;;;;;;;5089157;28;20023;-78
2021/04/05 12:22:59;;;;;;;1.23;1.13;;;;;;;;;;5088730;28;20032;-76
2021/04/05 12:25:33;;;;;;;1.75;0.98;;;;;;;;;;5089342;28;20027;-78
2021/04/05 12:28:00;;;;;;;2.17;1.30;;;;;;;;;;5088951;28;20051;-77
2021/04/05 12:30:27;;;;;;;1.58;1.48;;;;;;;;;;5088562;28;20016;-78
2021/04/05 12:32:53;;;;;;;1.75;1.63;;;;;;;;;;5088501;28;20465;-78
2021/04/05 12:35:21;;;;;;;2.45;1.52;;;;;;;;;;5088692;28;20039;-78
2021/04/05 12:37:53;;;;;;;1.95;1.60;;;;;;;;;;5087624;28;20082;-78
2021/04/05 12:40:22;;;;;;;1.55;1.42;;;;;;;;;;5087150;28;20036;-78
2021/04/05 12:42:49;;;;;;;2.05;1.63;;;;;;;;;;5088195;28;20067;-78
2021/04/05 12:45:16;;;;;;;1.20;0.82;;;;;;;;;;5088035;28;20060;-78
2021/04/05 12:47:44;;;;;;;2.58;1.17;;;;;;;;;;5088449;28;20388;-78
2021/04/05 12:50:11;;;;;;;1.20;1.10;;;;;;;;;;5087675;28;20024;-78
2021/04/05 12:52:39;;;;;;;2.88;1.35;;;;;;;;;;5087870;28;20024;-78
2021/04/05 12:55:09;;;;;;;1.45;1.35;;;;;;;;;;5088197;28;20028;-78
2021/04/05 12:57:36;;;;;;;1.52;1.25;;;;;;;;;;5070577;28;20032;-78
2021/04/05 13:00:04;;;;;;;1.85;1.60;;;;;;;;;;5087626;28;20070;-78
2021/04/05 13:02:32;;;;;;;4.25;1.75;;;;;;;;;;5087852;28;20048;-78
2021/04/05 13:04:59;;;;;;;1.73;1.10;;;;;;;;;;5087933;28;20020;-78
2021/04/05 13:07:52;;;;;;;1.17;1.00;;;;;;;;;;5087019;28;20372;-79
2021/04/05 13:10:22;;;;;;;1.95;1.42;;;;;;;;;;5084667;28;20043;-78
2021/04/05 13:12:53;;;;;;;1.45;1.15;;;;;;;;;;5088284;28;20056;-78
2021/04/05 13:15:21;;;;;;;1.20;1.10;;;;;;;;;;5088270;28;20035;-78
2021/04/05 13:17:50;;;;;;;2.83;1.35;;;;;;;;;;5088133;28;20487;-78
2021/04/05 13:20:18;;;;;;;1.33;1.23;;;;;;;;;;5087402;28;20032;-78
2021/04/05 13:22:51;;;;;;;0.95;0.70;;;;;;;;;;5087324;28;20036;-78
2021/04/05 13:25:25;;;;;;;1.25;1.15;;;;;;;;;;5088205;28;20044;-78
2021/04/05 13:27:51;;;;;;;;;;;;;;;;;;5089418;28;20020;-79
2021/04/05 13:30:17;;;;;;;2.53;1.65;;;;;;;;;;5087297;28;20267;-78
2021/04/05 13:32:44;;;;;;;1.35;0.80;;;;;;;;;;5087386;28;20024;-79
2021/04/05 13:35:12;;;;;;;1.88;1.00;;;;;;;;;;5087404;28;20434;-78
2021/04/05 13:37:49;;;;;;;2.03;1.20;;;;;;;;;;5086592;28;20086;-78
2021/04/05 13:40:21;;;;;;;1.75;1.65;;;;;;;;;;5087072;28;21181;-78
2021/04/05 13:42:47;;;;;;;3.13;1.58;;;;;;;;;;5087240;28;20032;-79
2021/04/05 13:45:15;;;;;;;1.50;1.40;;;;;;;;;;5087305;28;20604;-78
2021/04/05 13:47:47;;;;;;;1.10;1.00;;;;;;;;;;5087930;28;20497;-78
2021/04/05 13:50:14;;;;;;;0.85;0.85;;;;;;;;;;5087503;28;20043;-78
2021/04/05 13:52:41;;;;;;;2.28;1.40;;;;;;;;;;5087155;28;20203;-79
2021/04/05 13:55:13;;;;;;;1.77;1.67;;;;;;;;;;5087116;28;20039;-79
2021/04/05 13:57:43;;;;;;;1.70;1.30;;;;;;;;;;5087632;28;20032;-79
2021/04/05 14:00:11;;;;;;;1.05;1.05;;;;;;;;;;5086635;28;20031;-79
2021/04/05 14:02:51;;;;;;;1.33;1.23;;;;;;;;;;5087063;28;20040;-78
2021/04/05 14:05:18;;;;;;;1.00;1.00;;;;;;;;;;5086982;28;20438;-79
2021/04/05 14:07:46;;;;;;;1.48;1.30;;;;;;;;;;5086646;28;20470;-78
2021/04/05 14:10:14;;;;;;;1.60;1.30;;;;;;;;;;5086488;28;20032;-79
2021/04/05 14:12:42;;;;;;;1.52;1.08;;;;;;;;;;5087101;28;20221;-78
2021/04/05 14:15:09;;;;;;;1.20;1.10;;;;;;;;;;5087190;28;20024;-79
2021/04/05 14:17:39;;;;;;;1.55;1.17;;;;;;;;;;5087985;28;20071;-79
2021/04/05 14:20:07;;;;;;;1.23;1.13;;;;;;;;;;5086721;28;20089;-78
2021/04/05 14:22:36;;;;;;;1.52;1.38;;;;;;;;;;5087014;28;20036;-78
2021/04/05 14:25:24;;;;;;;3.97;1.40;;;;;;;;;;5086992;28;20034;-78
2021/04/05 14:28:10;;;;;;;1.20;1.10;;;;;;;;;;5087866;28;20024;-79
2021/04/05 14:30:39;;;;;;;1.27;1.17;;;;;;;;;;5087144;28;20032;-79
2021/04/05 14:33:08;;;;;;;1.52;1.35;;;;;;;;;;5086510;28;20436;-78
2021/04/05 14:35:40;;;;;;;3.42;1.65;;;;;;;;;;5087329;28;20387;-78
2021/04/05 14:38:08;;;;;;;1.30;1.05;;;;;;;;;;5085783;28;20044;-79
2021/04/05 14:40:36;;;;;;;2.35;1.48;;;;;;;;;;5087017;28;20020;-79
2021/04/05 14:43:06;;;;;;;1.40;1.23;;;;;;;;;;5085804;28;20398;-78
2021/04/05 14:45:32;;;;;;;1.60;1.50;;;;;;;;;;5087222;28;20020;-78
2021/04/05 14:48:00;;;;;;;2.08;1.88;;;;;;;;;;5086390;28;20516;-78
2021/04/05 14:50:38;;;;;;;1.75;1.65;;;;;;;;;;5086845;28;20046;-79
2021/04/05 14:53:06;;;;;;;2.30;1.02;;;;;;;;;;5086172;28;20479;-78
2021/04/05 14:55:37;;;;;;;2.13;1.48;;;;;;;;;;5087353;28;20456;-79
2021/04/05 14:58:04;;;;;;;1.42;1.33;;;;;;;;;;5086356;28;20433;-77
2021/04/05 15:00:34;;;;;;;0.95;0.93;;;;;;;;;;5086782;28;20028;-79
2021/04/05 15:03:06;;;;;;;1.77;1.50;;;;;;;;;;5088849;28;20036;-78